createdAt,value
2022-11-22T00:00:18.312Z,3.15
2022-11-22T00:02:45.034Z,5.72
2022-11-22T00:05:11.925Z,6.03
2022-11-22T00:07:38.897Z,6.35
2022-11-22T00:10:07.534Z,4.45
2022-11-22T00:12:34.538Z,2.80
2022-11-22T00:15:01.495Z,3.65
2022-11-22T00:17:28.069Z,3.00
2022-11-22T00:19:54.638Z,3.83
2022-11-22T00:22:21.148Z,4.30
2022-11-22T00:24:47.711Z,3.95
2022-11-22T00:27:14.377Z,4.47
2022-11-22T00:29:40.810Z,3.90
2022-11-22T00:32:07.278Z,4.95
2022-11-22T00:34:33.839Z,1.55
2022-11-22T00:37:00.327Z,3.88
2022-11-22T00:39:26.999Z,6.07
2022-11-22T00:41:53.877Z,4.23
2022-11-22T00:44:20.332Z,5.15
2022-11-22T00:46:46.780Z,2.33
2022-11-22T00:49:13.340Z,7.88
2022-11-22T00:51:40.441Z,4.65
2022-11-22T00:54:07.415Z,6.17
2022-11-22T00:56:33.916Z,3.47
2022-11-22T00:59:00.464Z,4.13
2022-11-22T01:01:27.036Z,8.13
2022-11-22T01:03:53.641Z,4.45
2022-11-22T01:06:20.430Z,2.10
2022-11-22T01:08:46.905Z,2.35
2022-11-22T01:11:16.444Z,3.47
2022-11-22T01:13:42.970Z,2.80
2022-11-22T01:16:11.634Z,2.95
2022-11-22T01:18:38.178Z,3.30
2022-11-22T01:21:05.891Z,3.97
2022-11-22T01:23:33.291Z,1.35
2022-11-22T01:26:00.027Z,2.88
2022-11-22T01:28:27.260Z,4.93
2022-11-22T01:30:54.455Z,1.37
2022-11-22T01:33:21.408Z,2.88
2022-11-22T01:35:48.130Z,3.28
2022-11-22T01:38:14.692Z,4.60
2022-11-22T01:40:41.226Z,4.07
2022-11-22T01:43:22.911Z,5.13
2022-11-22T01:45:55.616Z,1.42
2022-11-22T01:48:34.281Z,2.25
2022-11-22T01:51:06.372Z,5.82
2022-11-22T01:53:38.879Z,2.78
2022-11-22T01:56:10.247Z,3.67
2022-11-22T01:58:39.049Z,4.05
2022-11-22T02:01:06.479Z,5.38
2022-11-22T02:03:38.266Z,4.18
2022-11-22T02:06:06.722Z,3.55
2022-11-22T02:09:00.848Z,1.87
2022-11-22T02:11:32.509Z,5.90
2022-11-22T02:14:00.505Z,2.05
2022-11-22T02:16:27.791Z,1.75
2022-11-22T02:18:54.364Z,4.82
2022-11-22T02:21:20.969Z,8.03
2022-11-22T02:24:00.617Z,1.48
2022-11-22T02:26:28.996Z,5.78
2022-11-22T02:29:00.984Z,1.48
2022-11-22T02:31:45.175Z,2.95
2022-11-22T02:34:13.152Z,4.30
2022-11-22T02:36:43.938Z,3.08
2022-11-22T02:39:14.292Z,3.80
2022-11-22T02:41:40.724Z,2.65
2022-11-22T02:44:08.801Z,3.85
2022-11-22T02:46:35.302Z,4.03
2022-11-22T02:49:01.864Z,2.35
2022-11-22T02:51:28.380Z,4.45
2022-11-22T02:53:56.773Z,1.98
2022-11-22T02:56:23.337Z,5.35
2022-11-22T02:58:49.807Z,3.37
2022-11-22T03:01:16.344Z,4.97
2022-11-22T03:03:42.863Z,4.00
2022-11-22T03:06:09.538Z,6.07
2022-11-22T03:08:36.063Z,4.55
2022-11-22T03:11:02.547Z,3.30
2022-11-22T03:13:29.032Z,5.95
2022-11-22T03:15:55.580Z,4.68
2022-11-22T03:18:22.440Z,1.67
2022-11-22T03:20:48.886Z,4.55
2022-11-22T03:23:15.490Z,7.83
2022-11-22T03:25:41.968Z,4.88
2022-11-22T03:28:08.459Z,2.72
2022-11-22T03:30:39.469Z,3.45
2022-11-22T03:33:05.920Z,4.72
2022-11-22T03:35:32.531Z,5.30
2022-11-22T03:37:58.981Z,6.18
2022-11-22T03:40:25.646Z,4.15
2022-11-22T03:42:52.076Z,2.05
2022-11-22T03:45:18.540Z,2.17
2022-11-22T03:47:45.135Z,3.27
2022-11-22T03:50:11.592Z,5.82
2022-11-22T03:52:38.147Z,5.25
2022-11-22T03:55:04.949Z,6.47
2022-11-22T03:57:31.415Z,4.72
2022-11-22T03:59:57.857Z,5.83
2022-11-22T04:02:24.343Z,5.78
2022-11-22T04:04:50.797Z,2.22
2022-11-22T04:07:17.477Z,8.45
2022-11-22T04:09:43.925Z,4.35
2022-11-22T04:12:10.395Z,5.43
2022-11-22T04:14:55.358Z,1.80
2022-11-22T04:17:40.264Z,4.50
2022-11-22T04:20:46.089Z,10.07
2022-11-22T04:23:14.908Z,7.78
2022-11-22T04:25:44.713Z,2.40
2022-11-22T04:28:13.171Z,4.72
2022-11-22T04:30:58.368Z,5.45
2022-11-22T04:33:25.679Z,4.25
2022-11-22T04:35:52.859Z,4.68
2022-11-22T04:38:20.127Z,1.97
2022-11-22T04:40:47.093Z,7.97
2022-11-22T04:43:38.592Z,4.90
2022-11-22T04:46:05.208Z,4.60
2022-11-22T04:48:31.881Z,4.22
2022-11-22T04:51:17.036Z,3.37
2022-11-22T04:53:44.481Z,4.25
2022-11-22T04:56:11.695Z,3.67
2022-11-22T04:58:38.498Z,4.85
2022-11-22T05:01:05.098Z,8.15
2022-11-22T05:03:32.003Z,5.83
2022-11-22T05:06:02.736Z,5.03
2022-11-22T05:08:29.997Z,6.88
2022-11-22T05:10:57.072Z,5.85
2022-11-22T05:13:23.536Z,15.82
2022-11-22T05:15:51.405Z,3.53
2022-11-22T05:18:19.417Z,1.65
2022-11-22T05:20:46.414Z,3.83
2022-11-22T05:23:32.553Z,6.72
2022-11-22T05:25:59.356Z,2.50
2022-11-22T05:28:33.517Z,1.70
2022-11-22T05:31:05.578Z,2.13
2022-11-22T05:33:32.011Z,4.38
2022-11-22T05:36:01.892Z,2.55
2022-11-22T05:38:28.378Z,2.33
2022-11-22T05:40:55.305Z,6.23
2022-11-22T05:43:21.787Z,4.20
2022-11-22T05:45:48.359Z,4.97
2022-11-22T05:48:14.840Z,5.97
2022-11-22T05:50:41.311Z,2.90
2022-11-22T05:53:07.804Z,6.83
2022-11-22T05:55:34.281Z,2.67
2022-11-22T05:58:01.641Z,3.15
2022-11-22T06:00:29.815Z,3.30
2022-11-22T06:03:03.763Z,3.60
2022-11-22T06:05:30.941Z,5.40
2022-11-22T06:07:59.919Z,6.25
2022-11-22T06:10:26.904Z,0.85
2022-11-22T06:12:53.582Z,5.03
2022-11-22T06:15:20.599Z,4.95
2022-11-22T06:17:47.176Z,3.67
2022-11-22T06:20:13.823Z,3.65
2022-11-22T06:22:40.368Z,5.45
2022-11-22T06:25:07.675Z,4.93
2022-11-22T06:27:34.248Z,6.88
2022-11-22T06:30:00.772Z,3.47
2022-11-22T06:32:27.235Z,3.75
2022-11-22T06:34:53.690Z,3.90
2022-11-22T06:37:20.160Z,4.13
2022-11-22T06:39:46.717Z,4.45
2022-11-22T06:42:13.136Z,4.10
2022-11-22T06:44:39.608Z,5.03
2022-11-22T06:47:06.326Z,6.00
2022-11-22T06:49:32.961Z,3.50
2022-11-22T06:51:59.524Z,4.18
2022-11-22T06:54:26.045Z,3.43
2022-11-22T06:56:52.530Z,4.40
2022-11-22T06:59:19.072Z,2.53
2022-11-22T07:01:45.623Z,2.22
2022-11-22T07:04:12.261Z,3.40
2022-11-22T07:06:39.548Z,5.77
2022-11-22T07:09:09.283Z,5.68
2022-11-22T07:11:36.890Z,4.85
2022-11-22T07:14:08.302Z,4.10
2022-11-22T07:16:37.339Z,10.00
2022-11-22T07:19:04.860Z,4.30
2022-11-22T07:21:32.394Z,2.35
2022-11-22T07:23:58.941Z,5.35
2022-11-22T07:26:26.270Z,2.70
2022-11-22T07:28:53.051Z,3.85
2022-11-22T07:31:19.762Z,4.70
2022-11-22T07:33:46.651Z,3.47
2022-11-22T07:36:15.830Z,8.23
2022-11-22T07:38:42.396Z,5.22
2022-11-22T07:41:10.163Z,3.70
2022-11-22T07:43:36.929Z,3.03
2022-11-22T07:46:08.401Z,6.40
2022-11-22T07:48:35.104Z,8.70
2022-11-22T07:51:07.057Z,2.50
2022-11-22T07:53:34.888Z,6.07
2022-11-22T07:56:05.515Z,3.57
2022-11-22T07:58:33.347Z,4.25
2022-11-22T08:01:14.179Z,4.68
2022-11-22T08:03:41.192Z,4.05
2022-11-22T08:06:12.884Z,2.05
2022-11-22T08:08:39.825Z,4.13
2022-11-22T08:11:07.415Z,5.47
2022-11-22T08:13:35.123Z,8.70
2022-11-22T08:16:07.681Z,4.53
2022-11-22T08:18:35.306Z,3.75
2022-11-22T08:21:03.727Z,4.37
2022-11-22T08:23:30.322Z,4.68
2022-11-22T08:25:59.003Z,5.90
2022-11-22T08:28:25.489Z,3.40
2022-11-22T08:30:52.432Z,5.60
2022-11-22T08:33:18.907Z,4.97
2022-11-22T08:35:50.190Z,3.28
2022-11-22T08:38:16.658Z,4.90
2022-11-22T08:40:43.201Z,3.90
2022-11-22T08:43:10.303Z,3.95
2022-11-22T08:45:38.067Z,2.90
2022-11-22T08:48:04.644Z,3.40
2022-11-22T08:50:31.125Z,3.13
2022-11-22T08:52:57.581Z,2.83
2022-11-22T08:55:24.073Z,4.93
2022-11-22T08:57:50.673Z,6.67
2022-11-22T09:00:17.710Z,6.75
2022-11-22T09:02:44.245Z,4.20
2022-11-22T09:05:10.758Z,4.63
2022-11-22T09:10:23.770Z,4.20
2022-11-22T09:12:50.384Z,5.53
2022-11-22T09:15:17.188Z,5.10
2022-11-22T09:17:44.203Z,6.25
2022-11-22T09:20:11.796Z,2.85
2022-11-22T09:22:38.863Z,2.97
2022-11-22T09:25:06.850Z,4.13
2022-11-22T09:27:35.333Z,3.45
2022-11-22T09:30:02.165Z,4.07
2022-11-22T09:32:33.504Z,3.63
2022-11-22T09:35:00.359Z,3.40
2022-11-22T09:37:26.831Z,4.72
2022-11-22T09:39:53.321Z,3.75
2022-11-22T09:42:50.298Z,3.25
2022-11-22T09:45:42.190Z,1.77
2022-11-22T09:48:36.358Z,3.93
2022-11-22T09:51:09.977Z,4.60
2022-11-22T09:53:53.007Z,4.40
2022-11-22T09:56:24.704Z,5.28
2022-11-22T09:59:22.817Z,7.22
2022-11-22T10:02:17.722Z,6.70
2022-11-22T10:04:57.689Z,9.20
2022-11-22T10:07:30.184Z,4.95
2022-11-22T10:10:14.950Z,8.35
2022-11-22T10:13:03.784Z,3.42
2022-11-22T10:15:51.420Z,4.97
2022-11-22T10:18:26.581Z,5.25
2022-11-22T10:20:53.646Z,8.05
2022-11-22T10:23:22.770Z,8.15
2022-11-22T10:26:01.447Z,9.02
2022-11-22T10:28:34.434Z,4.00
2022-11-22T10:31:12.901Z,5.95
2022-11-22T10:33:46.941Z,4.90
2022-11-22T10:36:34.974Z,8.65
2022-11-22T10:39:14.897Z,5.85
2022-11-22T10:41:50.155Z,9.70
2022-11-22T10:44:39.804Z,6.82
2022-11-22T10:47:09.314Z,3.70
2022-11-22T10:49:58.039Z,6.22
2022-11-22T10:52:46.536Z,5.45
2022-11-22T10:55:42.904Z,3.77
2022-11-22T10:58:47.116Z,3.35
2022-11-22T11:01:33.727Z,3.75
2022-11-22T11:04:03.461Z,6.90
2022-11-22T11:10:09.755Z,6.07
2022-11-22T11:12:45.272Z,5.20
2022-11-22T11:15:36.608Z,4.07
2022-11-22T11:18:08.755Z,5.97
2022-11-22T11:20:38.477Z,4.97
2022-11-22T11:23:20.207Z,6.27
2022-11-22T11:25:48.731Z,3.58
2022-11-22T11:28:23.684Z,6.85
2022-11-22T11:31:41.639Z,6.45
2022-11-22T11:34:27.999Z,7.03
2022-11-22T11:36:57.641Z,6.23
2022-11-22T11:39:29.656Z,6.18
2022-11-22T11:41:56.874Z,6.75
2022-11-22T11:44:32.167Z,7.68
2022-11-22T11:46:59.456Z,5.72
2022-11-22T11:49:30.512Z,4.77
2022-11-22T11:51:58.689Z,5.35
2022-11-22T11:54:48.715Z,4.22
2022-11-22T11:57:27.304Z,4.03
2022-11-22T11:59:56.694Z,6.97
2022-11-22T12:02:28.023Z,5.03
2022-11-22T12:05:03.831Z,5.75
2022-11-22T12:07:36.171Z,5.00
2022-11-22T12:10:24.216Z,8.00
2022-11-22T12:12:54.719Z,5.30
2022-11-22T12:15:35.170Z,5.90
2022-11-22T12:18:28.722Z,6.25
2022-11-22T12:21:33.867Z,4.10
2022-11-22T12:24:42.853Z,7.60
2022-11-22T12:26:59.899Z,6.80
2022-11-22T12:29:26.637Z,4.83
2022-11-22T12:32:00.432Z,4.55
2022-11-22T12:34:32.951Z,5.60
2022-11-22T12:37:24.012Z,8.57
2022-11-22T12:39:54.524Z,7.25
2022-11-22T12:42:40.236Z,6.67
2022-11-22T12:45:13.464Z,5.40
2022-11-22T12:47:43.516Z,12.93
2022-11-22T12:50:20.637Z,5.78
2022-11-22T12:52:59.194Z,5.82
2022-11-22T12:55:30.639Z,5.30
2022-11-22T12:58:12.321Z,5.93
2022-11-22T13:00:54.215Z,6.85
2022-11-22T13:03:30.489Z,7.30
2022-11-22T13:06:00.460Z,5.43
2022-11-22T13:08:37.978Z,5.87
2022-11-22T13:11:22.914Z,8.60
2022-11-22T13:13:56.562Z,6.32
2022-11-22T13:16:23.018Z,8.80
2022-11-22T13:19:00.728Z,8.50
2022-11-22T13:22:05.064Z,8.30
2022-11-22T13:24:55.173Z,8.90
2022-11-22T13:27:39.859Z,7.15
2022-11-22T13:30:18.877Z,5.47
2022-11-22T13:32:49.606Z,8.27
2022-11-22T13:35:16.014Z,6.60
2022-11-22T13:37:55.556Z,7.82
2022-11-22T13:40:27.572Z,7.95
2022-11-22T13:43:21.641Z,7.93
2022-11-22T13:45:53.082Z,8.95
2022-11-22T13:48:40.600Z,6.63
2022-11-22T13:51:14.559Z,6.90
2022-11-22T13:53:43.940Z,5.72
2022-11-22T13:56:36.036Z,7.03
2022-11-22T13:59:18.313Z,9.13
2022-11-22T14:01:44.806Z,8.33
2022-11-22T14:04:17.027Z,4.95
2022-11-22T14:06:53.485Z,4.82
2022-11-22T14:09:53.527Z,4.32
2022-11-22T14:12:44.076Z,4.40
2022-11-22T14:15:26.221Z,4.50
2022-11-22T14:18:19.114Z,5.88
2022-11-22T14:21:13.615Z,7.15
2022-11-22T14:23:52.161Z,6.88
2022-11-22T14:26:27.054Z,4.88
2022-11-22T14:29:08.430Z,9.07
2022-11-22T14:31:36.273Z,6.75
2022-11-22T14:34:25.870Z,6.55
2022-11-22T14:37:10.551Z,7.22
2022-11-22T14:39:53.321Z,10.27
2022-11-22T14:42:43.536Z,5.37
2022-11-22T14:45:12.582Z,7.15
2022-11-22T14:47:46.402Z,5.72
2022-11-22T14:50:18.641Z,8.00
2022-11-22T14:52:47.070Z,5.32
2022-11-22T14:55:25.239Z,4.43
2022-11-22T14:58:00.694Z,6.63
2022-11-22T15:00:54.155Z,4.55
2022-11-22T15:03:44.489Z,6.32
2022-11-22T15:09:23.398Z,6.55
2022-11-22T15:09:46.790Z,5.77
2022-11-22T15:12:23.792Z,5.47
2022-11-22T15:59:25.120Z,16.20
2022-11-22T16:01:55.890Z,15.55
2022-11-22T16:04:34.760Z,14.00
2022-11-22T16:07:05.477Z,19.10
2022-11-22T16:09:37.442Z,17.10
2022-11-22T16:12:06.697Z,17.42
2022-11-22T16:14:42.357Z,19.95
2022-11-22T16:17:32.076Z,17.20
2022-11-22T16:20:32.131Z,19.83
2022-11-22T16:23:10.452Z,20.77
2022-11-22T16:25:39.269Z,16.80
2022-11-22T16:28:27.227Z,17.98
2022-11-22T16:31:07.439Z,18.80
2022-11-22T16:33:34.026Z,18.80
2022-11-22T16:36:01.993Z,19.08
2022-11-22T16:38:29.582Z,23.25
2022-11-22T16:40:58.216Z,19.50
2022-11-22T16:43:26.312Z,22.23
2022-11-22T16:45:52.857Z,20.37
2022-11-22T16:48:31.884Z,21.10
2022-11-22T16:51:03.707Z,23.13
2022-11-22T16:53:37.916Z,19.42
2022-11-22T16:56:04.530Z,18.40
2022-11-22T16:58:31.251Z,13.67
2022-11-22T17:00:57.846Z,17.02
2022-11-22T17:03:29.705Z,18.02
2022-11-22T17:05:56.144Z,17.75
2022-11-22T17:08:22.616Z,22.23
2022-11-22T17:10:52.057Z,15.83
2022-11-22T17:13:25.487Z,21.42
2022-11-22T17:15:56.657Z,20.38
2022-11-22T17:18:23.190Z,19.25
2022-11-22T17:20:50.035Z,20.17
2022-11-22T17:23:39.881Z,16.00
2022-11-22T17:26:06.503Z,15.95
2022-11-22T17:28:32.944Z,13.55
2022-11-22T17:31:01.719Z,17.95
2022-11-22T17:33:28.973Z,12.20
2022-11-22T17:35:55.732Z,12.77
2022-11-22T17:38:22.203Z,15.95
2022-11-22T17:40:50.175Z,17.15
2022-11-22T17:43:16.646Z,14.50
2022-11-22T17:45:43.689Z,15.57
2022-11-22T17:48:13.177Z,17.67
2022-11-22T17:50:39.966Z,17.95
2022-11-22T17:53:06.521Z,16.00
2022-11-22T17:55:48.433Z,12.68
2022-11-22T17:58:19.626Z,18.08
2022-11-22T18:00:46.058Z,17.20
2022-11-22T18:03:12.731Z,14.73
2022-11-22T18:05:39.182Z,14.35
2022-11-22T18:08:05.675Z,14.85
2022-11-22T18:10:32.578Z,15.90
2022-11-22T18:13:20.422Z,14.40
2022-11-22T18:15:45.590Z,14.65
2022-11-22T18:18:33.183Z,13.48
2022-11-22T18:20:58.565Z,15.80
2022-11-22T18:23:26.347Z,15.80
2022-11-22T18:25:58.555Z,20.80
2022-11-22T18:28:38.105Z,17.27
2022-11-22T18:31:04.657Z,21.63
2022-11-22T18:33:34.634Z,20.90
2022-11-22T18:36:04.500Z,17.25
2022-11-22T18:38:31.767Z,19.70
2022-11-22T18:41:02.801Z,21.55
2022-11-22T18:43:29.516Z,20.75
2022-11-22T18:46:02.709Z,18.70
2022-11-22T18:48:30.253Z,15.80
2022-11-22T18:51:08.275Z,15.57
2022-11-22T18:53:36.109Z,17.60
2022-11-22T18:56:08.081Z,14.10
2022-11-22T18:58:35.307Z,17.00
2022-11-22T19:01:12.473Z,14.18
2022-11-22T19:03:39.732Z,14.17
2022-11-22T19:06:07.970Z,14.27
2022-11-22T19:08:41.411Z,15.77
2022-11-22T19:11:08.491Z,19.00
2022-11-22T19:13:36.549Z,18.13
2022-11-22T19:16:08.385Z,21.60
2022-11-22T19:18:40.017Z,21.65
2022-11-22T19:21:14.818Z,21.33
2022-11-22T19:23:41.849Z,19.13
2022-11-22T19:26:11.386Z,19.25
2022-11-22T19:28:38.354Z,18.67
2022-11-22T19:31:09.972Z,26.20
2022-11-22T19:33:37.778Z,34.38
2022-11-22T19:36:32.119Z,36.33
2022-11-22T19:38:59.797Z,33.80
2022-11-22T19:41:26.775Z,18.30
2022-11-22T19:43:53.400Z,17.58
2022-11-22T19:46:20.039Z,21.10
2022-11-22T19:48:51.834Z,19.75
2022-11-22T19:51:18.505Z,18.35
2022-11-22T19:53:45.000Z,19.20
2022-11-22T19:56:18.737Z,14.90
2022-11-22T19:58:50.878Z,18.45
2022-11-22T20:01:18.460Z,18.02
2022-11-22T20:03:45.503Z,18.00
2022-11-22T20:06:14.125Z,19.27
2022-11-22T20:08:41.281Z,15.85
2022-11-22T20:11:10.959Z,14.40
2022-11-22T20:13:46.027Z,17.42
2022-11-22T20:16:16.431Z,19.85
2022-11-22T20:18:43.422Z,17.30
2022-11-22T20:21:11.387Z,17.52
2022-11-22T20:23:38.776Z,22.00
2022-11-22T20:26:11.582Z,22.25
2022-11-22T20:28:39.568Z,18.38
2022-11-22T20:31:14.536Z,23.40
2022-11-22T20:33:43.326Z,27.75
2022-11-22T20:36:12.529Z,19.95
2022-11-22T20:38:43.802Z,30.55
2022-11-22T20:41:12.075Z,21.98
2022-11-22T20:43:39.267Z,23.83
2022-11-22T20:46:09.159Z,26.70
2022-11-22T20:48:36.832Z,27.35
2022-11-22T20:51:06.460Z,23.70
2022-11-22T20:53:33.826Z,22.42
2022-11-22T20:56:00.730Z,22.43
2022-11-22T20:58:28.154Z,26.95
2022-11-22T21:00:56.279Z,23.83
2022-11-22T21:03:24.066Z,27.02
2022-11-22T21:05:52.567Z,21.70
2022-11-22T21:08:20.059Z,27.17
2022-11-22T21:10:46.655Z,23.13
2022-11-22T21:13:13.652Z,29.40
2022-11-22T21:15:40.430Z,27.70
2022-11-22T21:18:24.614Z,24.35
2022-11-22T21:20:51.918Z,25.00
2022-11-22T21:23:18.375Z,23.10
2022-11-22T21:25:46.073Z,26.35
2022-11-22T21:28:12.601Z,27.38
2022-11-22T21:30:39.138Z,29.80
2022-11-22T21:33:05.650Z,26.37
2022-11-22T21:35:32.100Z,27.42
2022-11-22T21:37:58.599Z,30.38
2022-11-22T21:40:25.076Z,23.88
2022-11-22T21:42:51.524Z,20.45
2022-11-22T21:45:18.123Z,27.73
2022-11-22T21:47:47.308Z,23.75
2022-11-22T21:50:15.279Z,27.38
2022-11-22T21:52:42.435Z,28.70
2022-11-22T21:55:09.688Z,21.90
2022-11-22T21:57:36.122Z,26.97
2022-11-22T22:00:04.133Z,20.80
2022-11-22T22:02:32.701Z,24.38
2022-11-22T22:04:59.185Z,25.48
2022-11-22T22:07:50.832Z,28.23
2022-11-22T22:10:14.108Z,22.17
2022-11-22T22:12:41.017Z,25.85
2022-11-22T22:15:10.372Z,28.98
2022-11-22T22:17:36.842Z,30.95
2022-11-22T22:20:03.631Z,32.78
2022-11-22T22:22:30.106Z,38.03
2022-11-22T22:24:56.550Z,38.58
2022-11-22T22:27:22.964Z,30.02
2022-11-22T22:29:49.424Z,30.05
2022-11-22T22:32:15.858Z,33.40
2022-11-22T22:34:42.301Z,32.07
2022-11-22T22:37:08.784Z,27.58
2022-11-22T22:39:35.249Z,26.58
2022-11-22T22:42:01.713Z,29.90
2022-11-22T22:44:29.051Z,27.25
2022-11-22T22:46:55.550Z,29.80
2022-11-22T22:49:21.979Z,27.73
2022-11-22T22:51:49.293Z,25.80
2022-11-22T22:54:15.911Z,24.90
2022-11-22T22:56:43.629Z,28.75
2022-11-22T22:59:10.378Z,27.80
2022-11-22T23:01:36.956Z,26.52
2022-11-22T23:04:03.541Z,26.98
2022-11-22T23:06:32.469Z,29.35
2022-11-22T23:08:59.204Z,25.33
2022-11-22T23:11:48.016Z,28.50
2022-11-22T23:14:20.712Z,24.48
2022-11-22T23:16:47.183Z,25.05
2022-11-22T23:19:13.661Z,26.27
2022-11-22T23:21:40.429Z,22.15
2022-11-22T23:24:07.819Z,23.87
2022-11-22T23:26:34.481Z,25.50
2022-11-22T23:29:01.440Z,22.80
2022-11-22T23:31:28.321Z,26.67
2022-11-22T23:33:54.924Z,23.23
2022-11-22T23:36:22.877Z,23.00
2022-11-22T23:38:49.339Z,21.20
2022-11-22T23:41:20.313Z,19.10
2022-11-22T23:43:47.822Z,20.95
2022-11-22T23:46:18.141Z,24.85
2022-11-22T23:48:46.119Z,21.00
2022-11-22T23:51:13.135Z,24.52
2022-11-22T23:53:39.960Z,24.23
2022-11-22T23:56:07.949Z,19.27
2022-11-22T23:58:35.228Z,23.08
